Leesville, LA

5:01 AM CDT on July 26, 2016 (GMT -0500)
Fort Polk | | Change Station

Elev 305 ft 31.02 °N, 92.91 °W | Updated 7 minutes ago

Fog
Fog
73 °F
Feels Like 73 °F
N
0
Wind Variable Wind from North

Today
High -- | Low -- °F
--% Chance of Precip.
Yesterday
High -- | Low -- °F
Precip. -- in
Pressure 30.01 in
Visibility 0.5 miles
Clouds
Dew Point 72 °F
Humidity 96%
Rainfall 0.00 in
Snow Depth Not available.
6:25 AM 8:11 PM
Waning Gibbous, 56% visible
METAR KBKB 260954Z AUTO 00000KT 1/2SM FG VV002 23/22 A2993 RMK AO2 SLP160 T02280222
Pressure 30.01 in
Visibility 0.5 miles
Clouds
Dew Point 72 °F
Humidity 96%
Rainfall 0.00 in
Snow Depth Not available.
6:25 AM 8:11 PM
Waning Gibbous, 56% visible
METAR KBKB 260954Z AUTO 00000KT 1/2SM FG VV002 23/22 A2993 RMK AO2 SLP160 T02280222

10-Day Weather Forecast

Almanac

Astronomy

Jul. 26, 2016 Rise Set
Actual Time
Civil Twilight
Nautical Twilight
Astronomical Twilight
Moon
Length of Visible Light
Length of Day
Tomorrow will be .
, % of the Moon is Illuminated

Today's Extremes

State Highs State Lows

Community

WunderPhotos

Upload Photos

1,927,557 photos uploaded!

WunderBlog® & News

Nearby

Air Quality

  Air Quality AQ Index Pollutant
Not available.

Snow Depth

Station Depth Elevation

Earthquake Activity

City Distance Mag. Time & Date
Minimum magnitude displayed is 2.5.

Coastal Water Temperatures

Place Temperature

Stations

Nearby Weather Stations

Station Location Temp. Windchill Dew Point Humidity Wind Precip. Elev Updated Type
                   

Watches & Warnings

There are currently no watches in effect.